Time;durP1;ratioP1;P1;durP2;ratioP2;P2;SDS_P1;SDS_P2;PMS_P1;PMS_P2;Temp;Humidity;BMP_temperature;BMP_pressure;BME280_temperature;BME280_humidity;BME280_pressure;Samples;Min_cycle;Max_cycle;Signal;HPM_P1;HPM_P2
2022/11/05 00:10:40;;;;;;;19.90;11.20;;;;;;;10.40;67.60;99601.32;104994;1291;139494;-90
2022/11/05 00:19:05;;;;;;;20.80;11.40;;;;;;;10.28;68.52;99611.64;104937;1294;93050;-91
2022/11/05 00:27:28;;;;;;;19.10;11.10;;;;;;;10.26;69.49;99615.64;104565;1283;99302;-90
2022/11/05 00:30:00;;;;;;;19.40;11.00;;;;;;;10.28;69.65;99618.93;104578;1297;139338;-90
2022/11/05 00:32:31;;;;;;;17.60;10.60;;;;;;;10.29;69.14;99617.13;104818;1291;93404;-90
2022/11/05 00:35:02;;;;;;;19.10;10.90;;;;;;;10.24;68.99;99612.32;104984;1284;139271;-89
2022/11/05 00:37:33;;;;;;;19.00;10.60;;;;;;;10.22;68.83;99612.75;105103;1292;108919;-89
2022/11/05 00:40:07;;;;;;;19.30;10.80;;;;;;;10.18;68.92;99613.45;104984;1291;138815;-90
2022/11/05 00:45:27;;;;;;;18.70;10.60;;;;;;;10.12;69.54;99606.21;105064;1284;93307;-91
2022/11/05 00:50:47;;;;;;;18.80;11.00;;;;;;;10.05;69.95;99598.12;105014;1294;108090;-90
2022/11/05 00:53:18;;;;;;;18.50;10.40;;;;;;;10.02;70.11;99590.96;104917;1275;138696;-90
2022/11/05 00:55:49;;;;;;;19.50;11.00;;;;;;;10.02;70.00;99590.26;105039;1299;107468;-90
2022/11/05 00:58:20;;;;;;;20.10;11.00;;;;;;;10.02;70.25;99595.74;104959;1294;138889;-90
2022/11/05 01:00:53;;;;;;;19.40;11.80;;;;;;;9.99;69.95;99595.48;105081;1292;93200;-91
2022/11/05 01:03:25;;;;;;;18.30;11.00;;;;;;;10.00;70.24;99591.73;105055;1291;108072;-90
2022/11/05 01:06:00;;;;;;;20.00;11.60;;;;;;;10.01;70.15;99586.23;104969;1291;139093;-91
2022/11/05 01:08:30;;;;;;;19.90;12.00;;;;;;;10.00;70.03;99588.75;105067;1295;107967;-92
2022/11/05 01:11:07;;;;;;;19.20;11.00;;;;;;;9.97;70.00;99589.02;104962;1291;138638;-89
2022/11/05 01:13:38;;;;;;;18.90;11.40;;;;;;;9.95;69.86;99588.91;105093;1284;93093;-90
2022/11/05 01:16:14;;;;;;;18.50;10.90;;;;;;;9.91;69.79;99589.78;104967;1299;139508;-89
2022/11/05 01:18:45;;;;;;;18.50;10.70;;;;;;;9.90;69.87;99590.17;105094;1285;98208;-92
2022/11/05 01:21:18;;;;;;;18.30;10.30;;;;;;;9.89;69.82;99597.84;105102;1291;107613;-90
2022/11/05 01:23:49;;;;;;;18.90;11.50;;;;;;;9.85;69.88;99605.77;104961;1285;138642;-90
2022/11/05 01:26:19;;;;;;;18.90;10.90;;;;;;;9.85;70.08;99610.56;104998;1295;92923;-90
2022/11/05 01:28:53;;;;;;;20.00;11.40;;;;;;;9.84;70.04;99613.25;104954;1294;138968;-91
2022/11/05 01:31:24;;;;;;;18.30;10.60;;;;;;;9.87;70.09;99615.63;105082;1293;98553;-90
2022/11/05 01:33:55;;;;;;;20.60;11.90;;;;;;;9.90;69.78;99612.70;105072;1291;107647;-89
2022/11/05 01:36:27;;;;;;;18.90;11.00;;;;;;;9.88;70.02;99611.32;105071;1285;93712;-91
2022/11/05 01:38:58;;;;;;;19.70;11.10;;;;;;;9.86;69.90;99613.68;105057;1299;92829;-90
2022/11/05 01:41:29;;;;;;;21.50;11.40;;;;;;;9.85;69.82;99611.61;104955;1291;139862;-91
2022/11/05 01:44:00;;;;;;;17.70;11.30;;;;;;;9.88;69.97;99620.01;105103;1294;98129;-91
2022/11/05 01:46:36;;;;;;;19.60;11.40;;;;;;;9.95;69.95;99629.02;104972;1294;138222;-91
2022/11/05 01:49:15;;;;;;;17.20;10.50;;;;;;;9.92;69.65;99630.16;105094;1283;93188;-90
2022/11/05 01:51:48;;;;;;;19.00;11.40;;;;;;;9.86;70.08;99634.27;105117;1283;92806;-90
2022/11/05 01:54:23;;;;;;;19.20;11.70;;;;;;;9.82;70.74;99628.20;104971;1291;138876;-88
2022/11/05 01:56:59;;;;;;;18.80;12.00;;;;;;;9.81;71.12;99626.46;105088;1299;98079;-89
2022/11/05 01:59:34;;;;;;;18.70;11.60;;;;;;;9.78;70.99;99621.44;104985;1292;138627;-90
2022/11/05 02:02:08;;;;;;;18.50;10.50;;;;;;;9.75;71.02;99627.77;104958;1295;93627;-88
2022/11/05 02:04:43;;;;;;;18.10;10.40;;;;;;;9.72;71.24;99638.48;104969;1294;143172;-90
2022/11/05 02:07:15;;;;;;;19.50;11.70;;;;;;;9.73;71.16;99635.11;105076;1291;108095;-89
2022/11/05 02:09:53;;;;;;;20.50;12.00;;;;;;;9.76;71.30;99640.69;105108;1293;98188;-89
2022/11/05 02:12:24;;;;;;;20.50;11.20;;;;;;;9.77;71.23;99646.31;104921;1294;106531;-89
2022/11/05 02:14:55;;;;;;;18.70;11.10;;;;;;;9.74;71.22;99644.45;104957;1300;93454;-89
2022/11/05 02:17:37;;;;;;;19.30;11.50;;;;;;;9.73;71.24;99637.21;104988;1295;138224;-89
2022/11/05 02:20:25;;;;;;;20.80;11.40;;;;;;;9.73;71.65;99623.05;105096;1291;107508;-90
2022/11/05 02:23:25;;;;;;;20.50;11.70;;;;;;;9.76;72.00;99617.45;104992;1297;138351;-88
2022/11/05 02:26:26;;;;;;;19.10;10.70;;;;;;;9.82;71.69;99624.65;105073;1294;107650;-90
2022/11/05 02:29:45;;;;;;;19.20;11.30;;;;;;;9.79;71.68;99625.13;104965;1291;138380;-88
2022/11/05 02:32:23;;;;;;;20.70;12.00;;;;;;;9.69;72.08;99631.17;105149;1291;93161;-90
2022/11/05 02:35:04;;;;;;;19.00;11.00;;;;;;;9.64;72.46;99629.22;104965;1291;140266;-88
2022/11/05 02:37:40;;;;;;;18.80;12.20;;;;;;;9.62;72.69;99632.46;105097;1283;98418;-89
2022/11/05 02:40:18;;;;;;;19.10;11.20;;;;;;;9.64;72.97;99630.80;104965;1297;139924;-91
2022/11/05 02:42:58;;;;;;;21.70;12.30;;;;;;;9.63;73.19;99639.34;105069;1284;92850;-90
2022/11/05 02:45:39;;;;;;;20.30;11.20;;;;;;;9.61;73.16;99644.04;105069;1286;93039;-89
2022/11/05 02:48:20;;;;;;;5.70;11.20;;;;;;;9.61;73.45;99648.45;104959;1292;140648;-89
2022/11/05 02:50:59;;;;;;;18.10;11.00;;;;;;;9.61;73.48;99654.48;105109;1286;97891;-89
2022/11/05 02:53:45;;;;;;;19.10;11.50;;;;;;;9.58;73.64;99662.94;104981;1292;138245;-90
2022/11/05 02:56:22;;;;;;;20.20;11.20;;;;;;;9.53;73.85;99664.48;105074;1299;93311;-90
2022/11/05 02:58:52;;;;;;;21.10;10.90;;;;;;;9.51;73.95;99666.16;104854;1294;139243;-89
2022/11/05 03:01:23;;;;;;;18.10;11.40;;;;;;;9.49;74.08;99661.77;105098;1299;108948;-89
2022/11/05 03:03:57;;;;;;;19.50;12.10;;;;;;;9.52;74.13;99662.41;105103;1297;98797;-89
2022/11/05 03:06:51;;;;;;;20.40;12.60;;;;;;;9.54;74.45;99660.74;105099;1291;107548;-89
2022/11/05 03:09:55;;;;;;;19.60;11.10;;;;;;;9.55;74.61;99659.45;105071;1292;93341;-88
2022/11/05 03:12:39;;;;;;;17.80;10.60;;;;;;;9.57;74.70;99655.68;105081;1291;92943;-89
2022/11/05 03:15:22;;;;;;;18.70;11.40;;;;;;;9.53;74.86;99663.23;105085;1295;107102;-89
2022/11/05 03:18:04;;;;;;;19.90;11.50;;;;;;;9.48;74.92;99661.64;105020;1293;138245;-89
2022/11/05 03:20:43;;;;;;;19.90;11.20;;;;;;;9.45;75.23;99667.59;105056;1297;107973;-87
2022/11/05 03:23:21;;;;;;;17.80;10.70;;;;;;;9.41;75.22;99675.19;105010;1291;139178;-89
2022/11/05 03:25:57;;;;;;;19.50;11.30;;;;;;;9.36;75.34;99680.30;104981;1283;93357;-89
2022/11/05 03:28:31;;;;;;;19.50;12.00;;;;;;;9.33;75.42;99685.36;104868;1292;141468;-89
2022/11/05 03:31:04;;;;;;;20.00;11.80;;;;;;;9.34;75.71;99692.57;105096;1291;97416;-88
2022/11/05 03:33:37;;;;;;;17.60;10.20;;;;;;;9.35;75.72;99690.27;104995;1287;107586;-88
2022/11/05 03:36:14;;;;;;;19.20;11.10;;;;;;;9.34;75.79;99686.20;104958;1298;139560;-88
2022/11/05 03:38:50;;;;;;;18.10;11.20;;;;;;;9.34;76.00;99684.42;105097;1291;93178;-87
2022/11/05 03:41:22;;;;;;;19.00;11.20;;;;;;;9.27;76.26;99685.20;104978;1293;138635;-88
2022/11/05 03:43:58;;;;;;;21.40;12.40;;;;;;;9.20;76.60;99684.88;105090;1289;97016;-87
2022/11/05 03:46:33;;;;;;;17.20;10.50;;;;;;;9.18;77.00;99686.91;104946;1294;139692;-88
2022/11/05 03:49:08;;;;;;;18.40;11.70;;;;;;;9.15;77.23;99685.23;105065;1287;92944;-88
2022/11/05 03:51:46;;;;;;;20.70;12.50;;;;;;;9.15;77.25;99693.73;105140;1291;93436;-88
2022/11/05 03:54:17;;;;;;;20.90;12.80;;;;;;;9.10;77.49;99693.89;104974;1292;138869;-89
2022/11/05 03:56:57;;;;;;;19.60;12.00;;;;;;;9.10;77.65;99697.61;105079;1298;98573;-86
2022/11/05 03:59:29;;;;;;;19.80;11.70;;;;;;;9.09;77.66;99703.13;104950;1299;140647;-87
2022/11/05 04:02:02;;;;;;;18.70;11.70;;;;;;;9.11;77.86;99708.55;105084;1299;94109;-86
2022/11/05 04:04:33;;;;;;;18.80;12.30;;;;;;;9.12;77.75;99709.58;105021;1291;138888;-86
2022/11/05 04:15:29;;;;;;;20.00;12.20;;;;;;;8.98;78.50;99703.83;105083;1291;93525;-87
2022/11/05 04:18:00;;;;;;;18.50;11.80;;;;;;;9.01;78.36;99708.15;105001;1291;142035;-87
2022/11/05 04:26:07;;;;;;;20.70;12.40;;;;;;;8.99;77.95;99728.40;105088;1298;106298;-88
2022/11/05 04:31:22;;;;;;;20.80;12.60;;;;;;;9.21;77.78;99738.17;104987;1300;93126;-87
2022/11/05 04:33:53;;;;;;;19.80;12.10;;;;;;;9.23;77.52;99742.90;105084;1299;108402;-87
2022/11/05 04:36:24;;;;;;;19.00;11.70;;;;;;;9.24;77.25;99745.16;104993;1299;138564;-88
2022/11/05 04:38:55;;;;;;;22.00;12.70;;;;;;;9.23;77.40;99747.16;105061;1289;105710;-88
2022/11/05 04:41:26;;;;;;;18.80;12.10;;;;;;;9.26;77.63;99747.08;104971;1297;138710;-87
2022/11/05 04:43:57;;;;;;;22.70;13.30;;;;;;;9.21;77.47;99748.09;104974;1297;93686;-88
2022/11/05 04:46:27;;;;;;;21.40;13.30;;;;;;;9.24;77.59;99756.68;104946;1292;139311;-88
2022/11/05 04:48:58;;;;;;;20.30;12.50;;;;;;;9.27;77.47;99768.10;105073;1299;98069;-88
2022/11/05 04:51:31;;;;;;;23.60;12.70;;;;;;;9.28;77.42;99769.30;105035;1300;107263;-88
2022/11/05 04:54:01;;;;;;;20.20;12.70;;;;;;;9.36;77.58;99771.53;105015;1298;139087;-88
2022/11/05 04:56:32;;;;;;;24.60;14.00;;;;;;;9.37;77.05;99769.20;105121;1292;93208;-87
2022/11/05 04:59:03;;;;;;;19.90;12.40;;;;;;;9.32;77.18;99774.30;104974;1277;138448;-88
2022/11/05 05:01:34;;;;;;;21.90;13.00;;;;;;;9.22;77.45;99786.65;104837;1292;279917;-88
2022/11/05 05:04:05;;;;;;;22.40;13.80;;;;;;;9.13;77.91;99781.27;105059;1298;107942;-88
2022/11/05 05:06:37;;;;;;;18.90;12.00;;;;;;;9.07;78.37;99781.29;105079;1293;93386;-86
2022/11/05 05:09:07;;;;;;;19.80;12.20;;;;;;;8.97;78.78;99779.44;105069;1297;93156;-87
2022/11/05 05:11:39;;;;;;;20.70;12.20;;;;;;;8.91;79.16;99777.49;104987;1284;138705;-86
2022/11/05 05:14:10;;;;;;;18.80;11.40;;;;;;;8.84;79.55;99773.79;105051;1294;97900;-86
2022/11/05 05:16:41;;;;;;;20.80;12.70;;;;;;;8.78;79.86;99777.17;104941;1294;138768;-86
2022/11/05 05:19:12;;;;;;;22.10;13.30;;;;;;;8.80;80.11;99778.54;105076;1292;93142;-86
2022/11/05 05:21:45;;;;;;;19.90;12.90;;;;;;;8.81;80.19;99785.75;104993;1294;93198;-87
2022/11/05 05:24:20;;;;;;;19.10;12.90;;;;;;;8.76;80.21;99782.36;104962;1299;139294;-87
2022/11/05 05:26:51;;;;;;;22.00;13.00;;;;;;;8.72;80.53;99782.11;105064;1293;98009;-87
2022/11/05 05:29:22;;;;;;;21.20;13.00;;;;;;;8.75;80.51;99784.19;104828;1297;138975;-86
2022/11/05 05:31:53;;;;;;;21.90;13.80;;;;;;;8.75;80.26;99792.13;105008;1299;92973;-86
2022/11/05 05:34:25;;;;;;;23.00;13.60;;;;;;;8.72;80.31;99795.04;105001;1297;139964;-86
2022/11/05 05:36:55;;;;;;;21.10;12.80;;;;;;;8.69;80.30;99804.68;105081;1295;108339;-87
2022/11/05 05:39:27;;;;;;;20.60;12.20;;;;;;;8.62;80.63;99802.59;105089;1292;97900;-86
2022/11/05 05:41:57;;;;;;;22.60;13.00;;;;;;;8.54;81.00;99799.79;104991;1284;138441;-86
2022/11/05 05:44:28;;;;;;;24.10;14.00;;;;;;;8.53;81.22;99808.30;105093;1275;93130;-86
2022/11/05 05:46:59;;;;;;;22.10;13.20;;;;;;;8.58;81.26;99816.15;104982;1295;138789;-87
2022/11/05 05:49:30;;;;;;;21.30;13.40;;;;;;;8.57;81.35;99830.50;105008;1295;110043;-86
2022/11/05 05:52:00;;;;;;;22.20;12.40;;;;;;;8.53;81.42;99820.68;105127;1291;97978;-86
2022/11/05 05:54:31;;;;;;;22.50;14.10;;;;;;;8.51;81.64;99822.15;104966;1292;139728;-85
2022/11/05 05:57:09;;;;;;;20.20;13.60;;;;;;;8.55;81.78;99820.98;104989;1294;92877;-85
2022/11/05 05:59:40;;;;;;;22.90;13.30;;;;;;;8.56;81.54;99820.08;104995;1299;139273;-86
2022/11/05 06:02:11;;;;;;;23.10;14.90;;;;;;;8.57;81.51;99819.19;105122;1292;108971;-85
2022/11/05 06:04:42;;;;;;;21.40;13.90;;;;;;;8.56;81.76;99825.74;104967;1298;138322;-85
2022/11/05 06:07:13;;;;;;;23.80;14.70;;;;;;;8.53;81.65;99840.88;105026;1294;106608;-85
2022/11/05 06:09:44;;;;;;;21.60;13.90;;;;;;;8.53;81.73;99844.95;105065;1281;93231;-85
2022/11/05 06:12:17;;;;;;;21.50;13.40;;;;;;;8.55;81.93;99841.52;104978;1287;138740;-85
2022/11/05 06:14:49;;;;;;;22.10;13.30;;;;;;;8.59;81.68;99843.90;105116;1291;110230;-85
2022/11/05 06:17:20;;;;;;;23.10;13.80;;;;;;;8.56;81.73;99845.55;104872;1293;139219;-84
2022/11/05 06:19:52;;;;;;;21.50;14.10;;;;;;;8.50;81.82;99850.50;105072;1294;107550;-85
2022/11/05 06:22:23;;;;;;;22.80;14.10;;;;;;;8.47;82.15;99855.17;104834;1293;139966;-85
2022/11/05 06:24:57;;;;;;;22.20;13.50;;;;;;;8.43;82.35;99854.55;105123;1294;93201;-86
2022/11/05 06:27:28;;;;;;;21.40;12.90;;;;;;;8.44;82.41;99854.00;105086;1292;109006;-86
2022/11/05 06:30:02;;;;;;;23.80;13.80;;;;;;;8.45;82.38;99858.73;104901;1295;139418;-85
2022/11/05 06:32:35;;;;;;;23.70;14.40;;;;;;;8.45;82.35;99861.94;104959;1293;107463;-86
2022/11/05 06:35:08;;;;;;;22.30;14.40;;;;;;;8.43;82.35;99859.32;104961;1297;139533;-86
2022/11/05 06:37:41;;;;;;;23.80;14.10;;;;;;;8.47;82.59;99861.00;105079;1291;92878;-86
2022/11/05 06:40:13;;;;;;;21.80;13.50;;;;;;;8.55;82.37;99860.44;104989;1299;141242;-86
2022/11/05 06:42:44;;;;;;;20.30;14.20;;;;;;;8.61;82.15;99866.14;105113;1291;97981;-85
2022/11/05 06:45:21;;;;;;;23.00;14.70;;;;;;;8.64;81.75;99862.86;105092;1292;107805;-84
2022/11/05 06:47:58;;;;;;;22.00;14.40;;;;;;;8.67;81.81;99864.20;104982;1293;138362;-85
2022/11/05 06:50:29;;;;;;;24.50;13.90;;;;;;;8.69;81.48;99864.84;105122;1298;93179;-85
2022/11/05 06:53:03;;;;;;;20.90;13.50;;;;;;;8.73;81.54;99866.16;104961;1298;139238;-86
2022/11/05 06:55:35;;;;;;;23.20;14.50;;;;;;;8.82;81.27;99874.25;105094;1298;98059;-85
2022/11/05 06:58:06;;;;;;;23.90;14.80;;;;;;;8.86;81.17;99873.58;105069;1298;106219;-86
2022/11/05 07:00:38;;;;;;;20.70;13.60;;;;;;;8.85;80.74;99870.42;105092;1292;93661;-85
2022/11/05 07:03:12;;;;;;;23.90;14.50;;;;;;;8.83;80.86;99870.14;104938;1301;93134;-87
2022/11/05 07:05:46;;;;;;;20.60;13.00;;;;;;;8.84;80.93;99875.42;104967;1290;138553;-86
2022/11/05 07:08:17;;;;;;;24.30;14.90;;;;;;;8.86;80.79;99874.13;105100;1298;98101;-86
2022/11/05 07:10:50;;;;;;;24.50;14.90;;;;;;;8.90;80.59;99878.80;104927;1295;138438;-86
2022/11/05 07:13:21;;;;;;;21.50;14.40;;;;;;;8.92;80.63;99876.80;105092;1299;94345;-86
2022/11/05 07:15:56;;;;;;;22.50;14.20;;;;;;;8.92;80.26;99878.92;105100;1298;93720;-87
2022/11/05 07:18:29;;;;;;;23.50;14.10;;;;;;;8.91;80.48;99880.38;104959;1291;140466;-86
2022/11/05 07:21:00;;;;;;;22.30;14.70;;;;;;;8.91;80.32;99886.22;105069;1298;98354;-87
2022/11/05 07:23:31;;;;;;;23.70;15.40;;;;;;;8.94;80.52;99882.95;105017;1295;138720;-86
2022/11/05 07:26:02;;;;;;;22.70;14.60;;;;;;;9.02;80.40;99882.16;104987;1283;92906;-86
2022/11/05 07:28:40;;;;;;;22.90;14.30;;;;;;;9.05;80.05;99880.33;104763;1303;137944;-85
2022/11/05 07:31:11;;;;;;;20.50;13.20;;;;;;;9.04;80.01;99881.77;104959;1298;108447;-86
2022/11/05 07:33:45;;;;;;;21.70;14.40;;;;;;;9.03;79.76;99883.55;105102;1284;98248;-86
2022/11/05 07:36:16;;;;;;;24.20;14.60;;;;;;;9.08;80.14;99900.64;104844;1294;137992;-86
2022/11/05 07:38:47;;;;;;;24.40;14.70;;;;;;;9.11;80.03;99904.41;105087;1293;93164;-86
2022/11/05 07:41:18;;;;;;;22.60;14.40;;;;;;;9.14;79.79;99903.09;104829;1294;139793;-86
2022/11/05 07:43:50;;;;;;;22.40;13.30;;;;;;;9.15;79.78;99908.73;105092;1301;108258;-86
2022/11/05 07:46:20;;;;;;;23.20;14.90;;;;;;;9.14;79.62;99915.48;104930;1286;139638;-86
2022/11/05 07:48:56;;;;;;;23.40;14.60;;;;;;;9.15;79.69;99918.66;105044;1294;108330;-85
2022/11/05 07:51:28;;;;;;;23.90;13.90;;;;;;;9.16;79.42;99914.56;105085;1285;93889;-85
2022/11/05 07:53:59;;;;;;;23.30;14.70;;;;;;;9.11;79.25;99918.23;104949;1291;139517;-89
2022/11/05 07:56:31;;;;;;;22.90;15.00;;;;;;;9.10;79.44;99923.38;105080;1292;108562;-87
2022/11/05 07:59:07;;;;;;;23.40;14.80;;;;;;;9.14;79.61;99936.55;104970;1292;139375;-88
2022/11/05 08:01:37;;;;;;;25.90;15.00;;;;;;;9.25;79.63;99941.91;105058;1278;106279;-87
2022/11/05 08:04:09;;;;;;;23.10;15.20;;;;;;;9.34;79.21;99944.52;105092;1286;93360;-87
2022/11/05 08:06:41;;;;;;;25.00;15.30;;;;;;;9.36;78.77;99948.17;105084;1298;92946;-87
2022/11/05 08:09:14;;;;;;;24.10;15.80;;;;;;;9.40;78.81;99944.52;104913;1292;110428;-87
2022/11/05 08:11:45;;;;;;;24.20;14.60;;;;;;;9.51;78.84;99946.48;104819;1293;139730;-87
2022/11/05 08:14:17;;;;;;;24.10;15.30;;;;;;;9.54;78.06;99939.48;105096;1290;107661;-88
2022/11/05 08:17:10;;;;;;;25.00;16.00;;;;;;;9.48;78.12;99945.52;104792;1288;138940;-88
2022/11/05 08:19:49;;;;;;;23.30;15.00;;;;;;;9.46;78.23;99947.53;105092;1286;93266;-87
2022/11/05 08:22:23;;;;;;;26.20;14.80;;;;;;;9.42;77.96;99946.08;104847;1293;139722;-88
2022/11/05 08:24:55;;;;;;;25.40;14.60;;;;;;;9.44;78.35;99945.81;105115;1292;97245;-88
2022/11/05 08:27:25;;;;;;;22.20;14.60;;;;;;;9.45;77.75;99944.38;105005;1281;106173;-87
2022/11/05 08:30:07;;;;;;;25.80;15.70;;;;;;;9.45;77.98;99943.48;104983;1292;139485;-87
2022/11/05 08:32:38;;;;;;;23.20;15.20;;;;;;;9.45;77.76;99944.01;105113;1297;92936;-88
2022/11/05 08:35:10;;;;;;;22.90;14.60;;;;;;;9.41;77.37;99946.07;104971;1299;139805;-88
2022/11/05 08:37:50;;;;;;;23.30;14.30;;;;;;;9.39;77.70;99949.70;105049;1292;97867;-86
2022/11/05 08:40:21;;;;;;;24.90;16.20;;;;;;;9.39;77.84;99949.15;104849;1299;139454;-87
2022/11/05 08:42:59;;;;;;;24.70;16.00;;;;;;;9.40;77.97;99948.60;105078;1298;93469;-88
2022/11/05 08:45:36;;;;;;;25.30;16.00;;;;;;;9.48;78.09;99946.96;104962;1300;93176;-88
2022/11/05 08:48:13;;;;;;;25.60;15.40;;;;;;;9.53;77.54;99948.93;104955;1290;139097;-87
2022/11/05 08:50:45;;;;;;;26.40;16.20;;;;;;;9.53;77.46;99942.37;104876;1300;98363;-88
2022/11/05 08:53:16;;;;;;;24.50;16.80;;;;;;;9.56;77.88;99938.91;104835;1282;138500;-87
2022/11/05 08:55:49;;;;;;;25.80;15.70;;;;;;;9.59;77.56;99948.41;105082;1292;93708;-89
2022/11/05 08:58:25;;;;;;;23.50;15.00;;;;;;;9.59;77.45;99962.59;104983;1292;139474;-88
2022/11/05 09:00:56;;;;;;;25.40;16.10;;;;;;;9.59;77.32;99967.90;104915;1298;107611;-89
2022/11/05 09:03:34;;;;;;;25.10;16.20;;;;;;;9.62;77.48;99973.85;105157;1290;96836;-88
2022/11/05 09:06:05;;;;;;;27.30;16.50;;;;;;;9.66;77.48;99984.86;104978;1291;137970;-87
2022/11/05 09:08:39;;;;;;;26.00;16.60;;;;;;;9.66;77.10;99984.86;105076;1292;93614;-88
2022/11/05 09:11:09;;;;;;;26.70;16.50;;;;;;;9.68;77.21;99982.88;104989;1298;138372;-88
2022/11/05 09:13:40;;;;;;;26.80;17.10;;;;;;;9.73;77.44;99989.48;105107;1298;108834;-88
2022/11/05 09:16:20;;;;;;;26.50;16.90;;;;;;;9.82;77.37;99989.73;105110;1286;97777;-88
2022/11/05 09:18:51;;;;;;;25.90;16.40;;;;;;;9.83;77.05;99991.27;105068;1297;107504;-87
2022/11/05 09:21:22;;;;;;;24.70;15.60;;;;;;;9.82;76.72;99991.67;105119;1299;92909;-88
2022/11/05 09:24:09;;;;;;;25.30;16.40;;;;;;;9.78;76.70;99995.68;104989;1298;138940;-88
2022/11/05 09:26:41;;;;;;;25.50;16.10;;;;;;;9.80;76.89;99997.06;105096;1293;108650;-87
2022/11/05 09:29:15;;;;;;;23.80;15.80;;;;;;;9.75;76.37;99992.42;104989;1294;138234;-88
2022/11/05 09:31:46;;;;;;;24.90;16.80;;;;;;;9.69;76.44;99994.72;105084;1292;107417;-89
2022/11/05 09:34:17;;;;;;;27.40;17.40;;;;;;;9.71;76.87;99996.24;105054;1294;93639;-89
2022/11/05 09:36:50;;;;;;;27.50;17.50;;;;;;;9.80;76.86;99998.30;105041;1294;93524;-89
2022/11/05 09:42:10;;;;;;;27.90;18.20;;;;;;;9.81;76.44;100005.00;105003;1292;139244;-89
2022/11/05 09:44:49;;;;;;;27.30;16.70;;;;;;;9.87;76.97;100012.27;105104;1291;107550;-89
2022/11/05 09:47:26;;;;;;;27.20;17.90;;;;;;;9.91;76.67;100019.95;104933;1297;139794;-89
2022/11/05 09:50:00;;;;;;;27.40;18.20;;;;;;;9.95;76.73;100019.86;105077;1290;92951;-88
2022/11/05 09:52:33;;;;;;;28.10;18.10;;;;;;;9.97;76.41;100022.98;104997;1297;138264;-89
2022/11/05 09:55:14;;;;;;;26.90;17.20;;;;;;;9.97;76.29;100029.17;105097;1289;97813;-89
2022/11/05 09:57:54;;;;;;;25.80;17.40;;;;;;;9.99;76.46;100036.23;105098;1298;107692;-90
2022/11/05 10:00:40;;;;;;;29.00;18.00;;;;;;;10.03;76.29;100035.58;104971;1299;138936;-89
2022/11/05 10:03:18;;;;;;;28.50;18.40;;;;;;;10.09;76.23;100035.40;105108;1296;92845;-90
2022/11/05 10:06:15;;;;;;;28.80;18.50;;;;;;;10.11;76.12;100033.02;104817;1293;139252;-91
2022/11/05 10:08:50;;;;;;;28.20;18.20;;;;;;;10.16;76.06;100044.76;104958;1278;99174;-91
2022/11/05 10:11:38;;;;;;;30.20;19.00;;;;;;;10.20;76.02;100045.50;104910;1284;139289;-91
2022/11/05 10:14:18;;;;;;;30.20;19.30;;;;;;;10.21;75.95;100053.48;105088;1290;93254;-91
2022/11/05 10:16:59;;;;;;;29.00;18.80;;;;;;;10.26;76.40;100056.54;104976;1295;139089;-91
2022/11/05 10:19:42;;;;;;;27.10;17.90;;;;;;;10.35;75.97;100052.73;105107;1292;108406;-90
2022/11/05 10:22:16;;;;;;;27.70;18.90;;;;;;;10.33;75.60;100052.58;105116;1291;98020;-91
2022/11/05 10:24:51;;;;;;;28.90;18.60;;;;;;;10.34;75.92;100058.59;105102;1297;107914;-90
2022/11/05 10:30:16;;;;;;;27.90;18.50;;;;;;;10.37;75.66;100062.44;104973;1291;139423;-90
2022/11/05 10:32:49;;;;;;;28.00;18.70;;;;;;;10.39;76.20;100067.14;105103;1297;109087;-88
2022/11/05 10:35:23;;;;;;;29.00;18.80;;;;;;;10.49;75.95;100082.11;104862;1292;139689;-88
2022/11/05 10:37:56;;;;;;;29.30;19.80;;;;;;;10.49;75.81;100078.55;105022;1276;107469;-89
2022/11/05 10:40:38;;;;;;;29.40;18.30;;;;;;;10.51;75.80;100075.84;104859;1285;139284;-88
2022/11/05 10:43:17;;;;;;;28.10;18.80;;;;;;;10.58;76.00;100073.87;105067;1292;93310;-87
2022/11/05 10:45:57;;;;;;;28.80;19.30;;;;;;;10.62;75.98;100069.65;105077;1284;108818;-87
2022/11/05 10:48:45;;;;;;;29.90;19.20;;;;;;;10.61;76.02;100069.15;105006;1291;138464;-88
2022/11/05 10:51:17;;;;;;;28.00;18.10;;;;;;;10.57;76.13;100069.09;105098;1285;107384;-89
2022/11/05 10:54:02;;;;;;;29.80;19.20;;;;;;;10.56;76.40;100068.05;104982;1299;139039;-89
2022/11/05 10:56:44;;;;;;;28.70;18.80;;;;;;;10.59;76.73;100066.17;105040;1292;93143;-88
2022/11/05 10:59:24;;;;;;;29.50;19.60;;;;;;;10.62;76.95;100070.35;104913;1292;139637;-88
2022/11/05 11:02:12;;;;;;;30.00;19.90;;;;;;;10.63;77.27;100071.21;105049;1291;98150;-88
2022/11/05 11:04:50;;;;;;;27.80;18.60;;;;;;;10.64;77.41;100076.67;104831;1285;140153;-88
2022/11/05 11:07:26;;;;;;;27.30;17.40;;;;;;;10.64;77.71;100081.64;105033;1292;94266;-87
2022/11/05 11:09:57;;;;;;;30.80;19.60;;;;;;;10.66;77.59;100083.01;105073;1285;92974;-88
2022/11/05 11:12:36;;;;;;;30.00;19.70;;;;;;;10.70;77.86;100085.02;104953;1292;138413;-88
2022/11/05 11:15:22;;;;;;;27.10;18.50;;;;;;;10.73;77.73;100083.66;104932;1301;100338;-88
2022/11/05 11:17:54;;;;;;;31.50;19.60;;;;;;;10.78;77.87;100087.98;104993;1278;139847;-88
2022/11/05 11:20:31;;;;;;;31.40;20.10;;;;;;;10.86;77.70;100089.66;105097;1291;93241;-87
2022/11/05 11:23:04;;;;;;;28.20;19.50;;;;;;;10.91;77.47;100090.38;105023;1291;139161;-87
2022/11/05 11:25:45;;;;;;;28.80;20.10;;;;;;;10.92;77.60;100091.58;104910;1284;109451;-88
2022/11/05 11:28:25;;;;;;;29.60;19.70;;;;;;;11.01;77.54;100096.27;104984;1284;98071;-88
2022/11/05 11:31:07;;;;;;;30.70;20.00;;;;;;;11.02;77.31;100096.41;104845;1286;108098;-87
2022/11/05 11:33:44;;;;;;;33.20;22.20;;;;;;;11.06;77.49;100094.52;105069;1285;92856;-88
2022/11/05 11:40:19;;;;;;;35.80;22.30;;;;;;;11.09;76.97;100099.92;105090;1281;109050;-88
2022/11/05 11:42:54;;;;;;;34.00;21.60;;;;;;;11.09;77.04;100097.24;105108;1291;98354;-88
2022/11/05 11:45:28;;;;;;;33.50;21.90;;;;;;;11.11;77.10;100098.60;105090;1291;108770;-88
2022/11/05 11:48:01;;;;;;;31.90;21.10;;;;;;;11.13;77.16;100098.00;104952;1285;138705;-88
2022/11/05 11:50:40;;;;;;;32.90;21.00;;;;;;;11.13;77.22;100100.30;104943;1284;93267;-88
2022/11/05 11:53:37;;;;;;;32.80;21.10;;;;;;;11.11;77.35;100101.98;104960;1291;139637;-87
2022/11/05 11:56:18;;;;;;;31.80;19.70;;;;;;;11.12;77.53;100106.56;104911;1298;98612;-88
2022/11/05 11:58:52;;;;;;;31.40;19.80;;;;;;;11.17;77.51;100112.98;104790;1285;139762;-87
2022/11/05 12:01:56;;;;;;;34.00;21.70;;;;;;;11.18;77.33;100116.30;104999;1291;94308;-87
2022/11/05 12:04:54;;;;;;;32.80;21.10;;;;;;;11.12;77.45;100122.89;104924;1292;139083;-87
2022/11/05 12:07:39;;;;;;;37.80;24.00;;;;;;;11.06;77.57;100130.22;104931;1293;108209;-87
2022/11/05 12:10:28;;;;;;;33.00;21.00;;;;;;;11.00;77.82;100135.20;105102;1292;98034;-88
2022/11/05 12:13:22;;;;;;;31.60;20.10;;;;;;;10.99;78.36;100133.63;104921;1288;108049;-87
2022/11/05 12:15:56;;;;;;;33.90;21.90;;;;;;;11.21;78.40;100134.16;105077;1292;93214;-87
2022/11/05 12:18:35;;;;;;;39.20;23.60;;;;;;;11.36;77.77;100136.70;105005;1294;138419;-88
2022/11/05 12:21:18;;;;;;;38.30;23.70;;;;;;;11.43;77.28;100137.69;105123;1293;108506;-88
2022/11/05 12:24:33;;;;;;;37.20;22.30;;;;;;;11.48;77.00;100137.16;104998;1285;139575;-87
2022/11/05 12:27:16;;;;;;;35.60;22.20;;;;;;;11.27;77.11;100136.98;104971;1283;107367;-88
2022/11/05 12:29:58;;;;;;;33.50;22.70;;;;;;;11.10;77.90;100137.73;104943;1287;232149;-87
2022/11/05 12:33:07;;;;;;;35.10;22.40;;;;;;;11.14;78.34;100137.05;105005;1291;93031;-87
2022/11/05 12:35:56;;;;;;;34.80;23.20;;;;;;;11.33;78.33;100136.09;104757;1293;139490;-87
2022/11/05 12:38:49;;;;;;;31.50;20.70;;;;;;;11.36;77.88;100132.08;105156;1278;98459;-87
2022/11/05 12:41:26;;;;;;;31.50;20.50;;;;;;;11.23;78.06;100124.33;104982;1283;139006;-87